Time;durP1;ratioP1;P1;durP2;ratioP2;P2;SDS_P1;SDS_P2;PMS_P1;PMS_P2;Temp;Humidity;BMP_temperature;BMP_pressure;BME280_temperature;BME280_humidity;BME280_pressure;Samples;Min_cycle;Max_cycle;Signal;HPM_P1;HPM_P2
2022/09/26 00:01:21;;;;;;;7.15;4.10;;;;;;;9.93;87.82;93472.09;5009141;28;20107;-68
2022/09/26 00:03:51;;;;;;;6.90;3.85;;;;;;;9.88;88.78;93469.88;5008984;28;20261;-69
2022/09/26 00:06:19;;;;;;;6.70;4.28;;;;;;;9.98;88.45;93468.88;5011177;28;20042;-69
2022/09/26 00:08:47;;;;;;;8.23;4.32;;;;;;;9.96;88.22;93463.06;5009510;28;20044;-69
2022/09/26 00:11:18;;;;;;;6.57;4.00;;;;;;;9.89;88.66;93460.44;5010563;28;20406;-68
2022/09/26 00:13:46;;;;;;;6.65;3.88;;;;;;;9.87;89.02;93462.06;5009666;28;20499;-69
2022/09/26 00:16:14;;;;;;;8.30;4.00;;;;;;;9.89;88.77;93459.69;5010394;28;20503;-69
2022/09/26 00:18:40;;;;;;;7.65;4.00;;;;;;;9.82;88.70;93451.59;5008887;28;20054;-69
2022/09/26 00:21:11;;;;;;;8.98;4.72;;;;;;;9.84;88.80;93457.41;5010217;28;20495;-68
2022/09/26 00:23:39;;;;;;;8.27;4.70;;;;;;;9.85;88.72;93454.25;5008666;28;20420;-69
2022/09/26 00:26:05;;;;;;;8.27;4.72;;;;;;;9.84;89.40;93457.41;5010472;28;20461;-69
2022/09/26 00:28:33;;;;;;;7.25;4.68;;;;;;;9.65;90.56;93456.22;5009571;28;20056;-69
2022/09/26 00:31:21;;;;;;;7.40;3.95;;;;;;;9.57;90.66;93447.38;5010108;28;20041;-68
2022/09/26 00:33:48;;;;;;;6.88;4.22;;;;;;;9.46;91.26;93449.56;5008714;28;20407;-68
2022/09/26 00:36:15;;;;;;;7.17;4.40;;;;;;;9.47;91.10;93440.13;5010279;28;20056;-68
2022/09/26 00:38:42;;;;;;;7.75;4.30;;;;;;;9.51;91.06;93438.88;5009477;28;20050;-68
2022/09/26 00:41:09;;;;;;;6.80;4.32;;;;;;;9.49;90.84;93438.50;5010265;28;20064;-69
2022/09/26 00:43:56;;;;;;;6.60;4.15;;;;;;;9.58;90.59;93437.97;5009534;28;20147;-69
2022/09/26 00:46:36;;;;;;;6.13;3.60;;;;;;;9.36;90.80;93432.13;5009803;28;20057;-69
2022/09/26 00:49:30;;;;;;;5.83;3.60;;;;;;;9.42;90.30;93432.38;5009844;28;20046;-68
2022/09/26 00:52:03;;;;;;;6.22;3.80;;;;;;;9.47;89.86;93429.94;5004841;28;20673;-68
2022/09/26 00:54:30;;;;;;;6.53;3.67;;;;;;;9.40;89.74;93428.13;5009063;28;20050;-68
2022/09/26 00:57:13;;;;;;;6.18;3.70;;;;;;;9.26;90.59;93422.91;5009935;28;20054;-69
2022/09/26 00:59:45;;;;;;;6.85;4.00;;;;;;;9.25;90.46;93420.59;5009413;28;20050;-68
2022/09/26 01:02:12;;;;;;;6.27;3.70;;;;;;;9.42;89.56;93411.28;5008597;28;20379;-69
2022/09/26 01:04:41;;;;;;;6.30;3.88;;;;;;;9.31;89.63;93418.91;5010003;28;20491;-68
2022/09/26 01:07:15;;;;;;;8.27;4.13;;;;;;;9.47;89.25;93415.47;4996575;28;20064;-69
2022/09/26 01:09:42;;;;;;;7.43;4.30;;;;;;;9.49;88.72;93402.91;5009213;28;20399;-69
2022/09/26 01:12:10;;;;;;;6.82;3.75;;;;;;;9.56;88.67;93405.50;5009873;28;20497;-68
2022/09/26 01:14:39;;;;;;;6.60;3.80;;;;;;;9.36;89.65;93407.47;5007840;28;20045;-69
2022/09/26 01:17:07;;;;;;;6.88;3.72;;;;;;;9.30;90.13;93403.69;5009898;28;20054;-68
2022/09/26 01:20:18;;;;;;;7.57;4.20;;;;;;;9.17;90.91;93401.53;5009190;28;20046;-69
2022/09/26 01:22:54;;;;;;;6.70;3.88;;;;;;;9.27;90.36;93393.56;5009140;28;20046;-69
2022/09/26 01:25:40;;;;;;;7.70;3.80;;;;;;;9.31;90.17;93399.75;5009698;28;20507;-69
2022/09/26 01:28:09;;;;;;;27.43;15.63;;;;;;;9.15;90.92;93394.94;5009705;28;20080;-69
2022/09/26 01:31:00;;;;;;;33.85;14.88;;;;;;;9.23;90.27;93392.84;5008995;28;20095;-69
2022/09/26 01:33:34;;;;;;;11.00;5.40;;;;;;;9.28;89.30;93390.41;5011755;28;20403;-69
2022/09/26 01:36:03;;;;;;;8.00;4.00;;;;;;;9.26;89.38;93401.00;5013306;28;20041;-69
2022/09/26 01:39:01;;;;;;;7.13;3.63;;;;;;;9.28;88.82;93397.84;5012483;28;20586;-69
2022/09/26 01:41:54;;;;;;;6.57;3.60;;;;;;;9.31;89.00;93386.81;5012549;28;20052;-69
2022/09/26 01:44:47;;;;;;;6.38;3.70;;;;;;;9.24;89.53;93389.69;5012893;28;20107;-67
2022/09/26 01:47:22;;;;;;;6.00;3.38;;;;;;;9.19;89.15;93390.97;5013143;28;20487;-69
2022/09/26 01:49:59;;;;;;;5.95;3.38;;;;;;;9.13;89.53;93386.38;5011994;28;20330;-68
2022/09/26 01:52:38;;;;;;;8.25;3.55;;;;;;;9.10;89.75;93390.72;5011542;28;20694;-69
2022/09/26 01:55:23;;;;;;;6.27;3.53;;;;;;;9.10;90.87;93379.78;5013137;28;20041;-68
2022/09/26 01:58:01;;;;;;;5.63;3.30;;;;;;;9.30;89.92;93388.03;5012233;28;20214;-68
2022/09/26 02:00:29;;;;;;;6.30;3.78;;;;;;;9.35;89.12;93386.75;5012200;28;20411;-69
2022/09/26 02:02:58;;;;;;;7.07;3.50;;;;;;;9.30;89.36;93379.03;5012875;28;20406;-68
2022/09/26 02:05:34;;;;;;;6.53;3.70;;;;;;;9.11;90.25;93375.06;5012348;28;20046;-68
2022/09/26 02:08:08;;;;;;;6.43;3.63;;;;;;;9.12;91.24;93374.66;5012969;28;20042;-69
2022/09/26 02:10:42;;;;;;;7.22;3.35;;;;;;;9.23;90.04;93376.44;5011762;28;20048;-69
2022/09/26 02:13:14;;;;;;;6.53;3.67;;;;;;;9.28;89.89;93373.97;5012649;28;20111;-67
2022/09/26 02:15:46;;;;;;;7.10;3.50;;;;;;;9.29;89.94;93372.00;5011757;28;20054;-69
2022/09/26 02:18:22;;;;;;;7.43;3.80;;;;;;;9.32;89.72;93368.44;5011405;28;20429;-69
2022/09/26 02:20:58;;;;;;;5.50;3.40;;;;;;;9.38;89.10;93370.25;5011412;28;20097;-68
2022/09/26 02:23:24;;;;;;;5.70;3.38;;;;;;;9.44;88.88;93372.50;5010907;28;20514;-69
2022/09/26 02:25:51;;;;;;;6.68;4.30;;;;;;;9.34;89.38;93368.78;5012154;28;20054;-68
2022/09/26 02:28:17;;;;;;;9.45;3.83;;;;;;;9.23;90.54;93373.69;5012415;28;20054;-69
2022/09/26 02:30:46;;;;;;;6.75;3.50;;;;;;;9.24;89.93;93359.59;5009666;28;20049;-68
2022/09/26 02:33:13;;;;;;;5.83;3.17;;;;;;;9.32;89.41;93363.72;5010830;28;20065;-69
2022/09/26 02:35:53;;;;;;;5.72;3.50;;;;;;;9.40;88.83;93356.91;5011931;28;20056;-69
2022/09/26 02:38:21;;;;;;;6.05;3.50;;;;;;;9.47;88.76;93358.72;5012231;28;20046;-69
2022/09/26 02:41:07;;;;;;;9.98;3.55;;;;;;;9.32;89.68;93361.00;5011132;28;21563;-68
2022/09/26 02:43:40;;;;;;;6.60;3.58;;;;;;;9.25;89.97;93354.88;4997331;28;20045;-68
2022/09/26 02:46:23;;;;;;;6.07;3.77;;;;;;;9.10;90.81;93357.88;5012032;28;20050;-68
2022/09/26 02:49:12;;;;;;;5.95;3.20;;;;;;;9.31;89.62;93353.94;5010984;28;20712;-68
2022/09/26 02:52:21;;;;;;;7.05;3.80;;;;;;;9.33;89.66;93356.28;5011172;28;20041;-68
2022/09/26 02:55:04;;;;;;;6.07;3.70;;;;;;;9.40;89.07;93351.44;5010799;28;20449;-68
2022/09/26 02:57:46;;;;;;;8.77;3.72;;;;;;;9.40;89.68;93339.72;5011491;28;20042;-69
2022/09/26 03:00:19;;;;;;;6.50;3.50;;;;;;;9.45;89.25;93346.66;5011690;28;20053;-68
2022/09/26 03:02:58;;;;;;;7.18;3.70;;;;;;;9.36;89.67;93342.53;5010720;28;20627;-68
2022/09/26 03:05:28;;;;;;;6.95;3.60;;;;;;;9.46;89.62;93343.50;5011289;28;20049;-68
2022/09/26 03:08:16;;;;;;;6.15;3.65;;;;;;;9.50;89.53;93333.25;5010107;28;20096;-68
2022/09/26 03:10:44;;;;;;;6.15;3.50;;;;;;;9.56;89.57;93339.78;5010483;28;20115;-68
2022/09/26 03:13:13;;;;;;;5.60;3.40;;;;;;;9.56;89.11;93339.00;5011634;28;20042;-69
2022/09/26 03:15:44;;;;;;;14.40;8.32;;;;;;;9.55;88.51;93342.94;5010542;28;20369;-69
2022/09/26 03:18:17;;;;;;;8.13;4.00;;;;;;;8.97;91.08;93340.53;5011372;28;20042;-69
2022/09/26 03:20:44;;;;;;;6.90;4.28;;;;;;;8.96;91.66;93345.22;5010736;28;20048;-68
2022/09/26 03:23:10;;;;;;;7.32;3.80;;;;;;;9.10;91.63;93336.00;5011058;28;20411;-69
2022/09/26 03:25:38;;;;;;;6.77;3.83;;;;;;;9.24;90.61;93325.97;5010456;28;20050;-68
2022/09/26 03:28:04;;;;;;;7.20;4.03;;;;;;;9.26;90.43;93335.28;5010835;28;20056;-68
2022/09/26 03:30:32;;;;;;;8.55;4.95;;;;;;;9.12;90.68;93338.31;5010226;28;20050;-69
2022/09/26 03:32:58;;;;;;;8.40;4.60;;;;;;;9.16;90.87;93337.03;5010359;28;20056;-68
2022/09/26 03:35:25;;;;;;;7.85;4.65;;;;;;;9.06;91.26;93342.72;5011018;28;20058;-69
2022/09/26 03:37:52;;;;;;;8.37;4.70;;;;;;;9.07;91.50;93334.06;5010889;28;20054;-68
2022/09/26 03:40:18;;;;;;;8.15;4.40;;;;;;;9.12;91.20;93328.13;5009628;28;20038;-69
2022/09/26 03:42:46;;;;;;;7.03;4.50;;;;;;;9.23;90.83;93324.41;5010263;28;20049;-69
2022/09/26 03:45:13;;;;;;;6.93;3.97;;;;;;;9.21;90.45;93322.09;5010937;28;20046;-69
2022/09/26 03:47:40;;;;;;;9.48;4.72;;;;;;;9.20;90.34;93321.31;5010052;28;20060;-69
2022/09/26 03:50:08;;;;;;;6.97;4.13;;;;;;;9.18;90.52;93312.00;5011043;28;20046;-69
2022/09/26 03:52:35;;;;;;;7.60;4.15;;;;;;;9.25;90.49;93311.06;5010508;28;20052;-68
2022/09/26 03:55:03;;;;;;;7.30;4.40;;;;;;;9.37;89.20;93308.44;5010204;28;20410;-68
2022/09/26 03:57:31;;;;;;;6.68;4.00;;;;;;;9.27;89.93;93300.47;5010342;28;20046;-69
2022/09/26 03:59:57;;;;;;;6.60;3.85;;;;;;;9.43;89.22;93300.50;5010330;28;20042;-68
2022/09/26 04:02:24;;;;;;;6.93;4.10;;;;;;;9.52;88.48;93297.22;5008744;28;20056;-69
2022/09/26 04:04:51;;;;;;;5.78;3.25;;;;;;;9.58;88.14;93296.28;5010160;28;20397;-68
2022/09/26 04:07:17;;;;;;;6.03;3.58;;;;;;;9.62;87.33;93289.94;5009352;28;20052;-69
2022/09/26 04:09:44;;;;;;;5.82;3.35;;;;;;;9.62;87.29;93285.25;5009942;28;20042;-69
2022/09/26 04:12:10;;;;;;;7.07;3.47;;;;;;;9.35;87.22;93282.69;5010572;28;20513;-68
2022/09/26 04:14:37;;;;;;;7.77;3.80;;;;;;;9.29;88.90;93284.38;5008055;28;20042;-69
2022/09/26 04:17:04;;;;;;;6.10;3.30;;;;;;;9.26;89.02;93280.53;5010397;28;20361;-68
2022/09/26 04:19:30;;;;;;;5.97;3.42;;;;;;;9.43;88.66;93278.59;5008805;28;20096;-69
2022/09/26 04:21:57;;;;;;;6.88;4.00;;;;;;;9.28;88.13;93282.84;5009954;28;20792;-69
2022/09/26 04:24:24;;;;;;;6.70;3.78;;;;;;;9.29;88.86;93274.19;5009741;28;20096;-69
2022/09/26 04:26:51;;;;;;;8.50;4.13;;;;;;;9.27;89.49;93275.81;5010227;28;20115;-69
2022/09/26 04:29:18;;;;;;;7.45;4.47;;;;;;;8.97;91.94;93267.44;5010227;28;20049;-67
2022/09/26 04:31:45;;;;;;;7.60;4.30;;;;;;;8.89;93.24;93271.47;5005195;28;20053;-68
2022/09/26 04:34:11;;;;;;;8.60;4.72;;;;;;;9.06;93.31;93260.63;5010114;28;20406;-67
2022/09/26 04:36:38;;;;;;;9.00;5.07;;;;;;;9.16;93.54;93259.63;5008564;28;20466;-67
2022/09/26 04:39:05;;;;;;;7.13;4.20;;;;;;;9.19;90.99;93259.56;5008324;28;20054;-69
2022/09/26 04:41:32;;;;;;;7.60;4.13;;;;;;;9.14;91.96;93260.03;5009545;28;20050;-67
2022/09/26 04:44:00;;;;;;;8.63;5.18;;;;;;;9.28;90.73;93253.50;5009791;28;20904;-67
2022/09/26 04:46:28;;;;;;;9.85;5.35;;;;;;;9.25;90.42;93259.03;5008949;28;20050;-66
2022/09/26 04:48:58;;;;;;;8.50;4.65;;;;;;;9.22;90.56;93265.38;5009331;28;20107;-69
2022/09/26 04:51:27;;;;;;;7.03;3.90;;;;;;;9.28;89.69;93260.94;5008799;28;20046;-70
2022/09/26 04:53:54;;;;;;;7.00;4.18;;;;;;;9.23;89.35;93258.69;4996245;28;20054;-67
2022/09/26 04:56:23;;;;;;;7.68;4.28;;;;;;;9.26;89.26;93261.38;5009062;28;20380;-62
2022/09/26 04:58:50;;;;;;;7.13;4.00;;;;;;;9.34;89.28;93262.00;5008979;28;20384;-68
2022/09/26 05:01:19;;;;;;;8.38;4.60;;;;;;;9.35;90.08;93258.06;5009331;28;20050;-67
2022/09/26 05:03:46;;;;;;;7.73;4.73;;;;;;;9.35;90.05;93256.06;5007972;28;20634;-67
2022/09/26 05:06:15;;;;;;;8.32;4.25;;;;;;;9.12;90.57;93256.97;5000455;28;20041;-68
2022/09/26 05:08:45;;;;;;;9.63;5.55;;;;;;;8.92;91.24;93253.47;5011848;28;20056;-68
2022/09/26 05:11:14;;;;;;;10.57;5.97;;;;;;;9.23;90.83;93253.22;5013384;28;20052;-67
2022/09/26 05:13:41;;;;;;;10.93;5.68;;;;;;;9.29;90.93;93251.53;5012353;28;20884;-68
2022/09/26 05:16:10;;;;;;;10.13;5.47;;;;;;;9.35;91.18;93253.34;5012926;28;20038;-68
2022/09/26 05:18:38;;;;;;;30.50;15.93;;;;;;;9.23;90.69;93247.75;5012355;28;20046;-68
2022/09/26 05:21:06;;;;;;;20.38;9.30;;;;;;;9.27;91.28;93251.94;5012889;28;20086;-68
2022/09/26 05:26:58;;;;;;;9.05;4.90;;;;;;;9.29;90.66;93252.28;5012869;28;20080;-69
2022/09/26 05:29:25;;;;;;;11.17;5.60;;;;;;;9.12;91.36;93251.47;4969714;28;21716;-67
2022/09/26 05:31:52;;;;;;;8.75;5.03;;;;;;;8.77;91.68;93250.22;4970999;28;20038;-67
2022/09/26 05:34:19;;;;;;;9.80;4.80;;;;;;;8.72;92.60;93253.44;4991313;28;20056;-67
2022/09/26 05:36:46;;;;;;;7.07;3.80;;;;;;;9.03;90.39;93262.22;5011396;28;20760;-67
2022/09/26 05:41:58;;;;;;;10.70;4.00;;;;;;;9.17;89.65;93272.88;5011424;28;21723;-67
2022/09/26 05:44:26;;;;;;;11.60;4.00;;;;;;;9.13;89.25;93293.31;5011956;28;20495;-67
2022/09/26 05:46:53;;;;;;;7.00;3.30;;;;;;;8.84;88.69;93284.88;5011992;28;20076;-68
2022/09/26 05:49:20;;;;;;;7.40;2.88;;;;;;;8.78;87.55;93279.88;5012500;28;20046;-67
2022/09/26 05:51:47;;;;;;;6.35;3.30;;;;;;;8.66;88.50;93279.75;5011232;28;20234;-67
2022/09/26 05:54:14;;;;;;;7.73;3.30;;;;;;;8.49;90.17;93276.91;5011176;28;20045;-67
2022/09/26 05:56:41;;;;;;;5.93;3.28;;;;;;;8.68;89.29;93275.41;5011542;28;26027;-67
2022/09/26 05:59:07;;;;;;;5.65;3.17;;;;;;;8.62;89.34;93270.84;5010731;28;20052;-67
2022/09/26 06:01:34;;;;;;;5.50;2.70;;;;;;;8.44;90.41;93265.69;5011884;28;20058;-67
2022/09/26 06:04:01;;;;;;;4.90;2.42;;;;;;;8.59;88.14;93277.91;5007870;28;20046;-67
2022/09/26 06:06:31;;;;;;;4.07;2.10;;;;;;;8.64;88.22;93277.41;5012268;28;20056;-67
2022/09/26 06:08:58;;;;;;;4.97;2.50;;;;;;;8.50;89.35;93272.97;5012098;28;20048;-67
2022/09/26 06:11:29;;;;;;;5.80;2.80;;;;;;;8.56;88.91;93265.84;5011526;28;20041;-67
2022/09/26 06:13:59;;;;;;;6.40;2.63;;;;;;;8.63;89.35;93259.44;5011949;28;20505;-67
2022/09/26 06:16:27;;;;;;;5.22;2.72;;;;;;;8.47;89.64;93254.69;5011632;28;20052;-67
2022/09/26 06:18:54;;;;;;;5.80;3.27;;;;;;;8.82;87.67;93251.72;5010264;28;20045;-67
2022/09/26 06:21:22;;;;;;;5.43;3.25;;;;;;;8.91;86.11;93244.47;5011391;28;20406;-67
2022/09/26 06:23:49;;;;;;;6.10;3.00;;;;;;;9.28;86.00;93230.84;5011370;28;20046;-68
2022/09/26 06:26:20;;;;;;;5.65;3.10;;;;;;;9.45;85.52;93226.91;5011816;28;20072;-68
2022/09/26 06:28:50;;;;;;;6.20;3.30;;;;;;;9.71;84.21;93221.66;5010424;28;20624;-68
2022/09/26 06:31:17;;;;;;;5.00;2.97;;;;;;;9.96;82.41;93221.06;5011924;28;20049;-68
2022/09/26 06:33:52;;;;;;;4.75;2.72;;;;;;;9.91;82.38;93216.88;5011028;28;20068;-68
2022/09/26 06:36:20;;;;;;;8.88;4.78;;;;;;;9.02;85.67;93216.91;5011970;28;20487;-68
2022/09/26 06:38:47;;;;;;;8.82;3.67;;;;;;;8.96;89.25;93224.81;5010353;28;20402;-67
2022/09/26 06:41:15;;;;;;;10.23;5.65;;;;;;;8.44;92.15;93214.50;5011513;28;20069;-68
2022/09/26 06:43:44;;;;;;;9.57;4.50;;;;;;;8.23;93.32;93212.09;5010793;28;20054;-68
2022/09/26 06:46:12;;;;;;;9.52;4.45;;;;;;;8.02;94.72;93213.25;5011512;28;20076;-68
2022/09/26 06:48:39;;;;;;;8.00;4.07;;;;;;;8.25;94.02;93217.94;5010980;28;20042;-67
2022/09/26 06:51:07;;;;;;;9.55;4.50;;;;;;;8.38;93.95;93218.88;5011196;28;20853;-68
2022/09/26 06:53:34;;;;;;;8.98;5.20;;;;;;;8.37;92.34;93209.13;5010920;28;20049;-68
2022/09/26 06:56:01;;;;;;;13.53;5.40;;;;;;;8.68;92.07;93204.28;5011107;28;20043;-68
2022/09/26 06:58:28;;;;;;;7.78;4.55;;;;;;;8.34;90.69;93199.78;5010860;28;20046;-68
2022/09/26 07:00:55;;;;;;;7.18;3.85;;;;;;;8.28;89.97;93203.44;5010820;28;20044;-68
2022/09/26 07:03:24;;;;;;;7.50;3.70;;;;;;;8.80;89.47;93203.63;5010279;28;20449;-67
2022/09/26 07:05:53;;;;;;;5.97;3.40;;;;;;;8.97;87.03;93190.81;5010567;28;20041;-68
2022/09/26 07:08:19;;;;;;;6.90;3.87;;;;;;;8.53;90.70;93192.06;5011270;28;20089;-68
2022/09/26 07:11:06;;;;;;;4.90;2.67;;;;;;;8.91;87.01;93194.44;5010071;28;20722;-68
2022/09/26 07:13:53;;;;;;;4.75;2.60;;;;;;;8.45;86.19;93198.84;5009997;28;20462;-68
2022/09/26 07:16:20;;;;;;;4.72;2.30;;;;;;;8.96;85.98;93202.94;5010806;28;20046;-67
2022/09/26 07:18:47;;;;;;;4.72;2.40;;;;;;;9.74;85.14;93196.16;5010057;28;20787;-67
2022/09/26 07:21:13;;;;;;;3.67;1.90;;;;;;;12.26;74.83;93190.63;5009293;28;20100;-68
2022/09/26 07:23:40;;;;;;;3.03;1.60;;;;;;;15.84;59.87;93188.63;5010112;28;20041;-68
2022/09/26 07:26:06;;;;;;;3.13;1.50;;;;;;;17.92;53.72;93183.63;5010545;28;20053;-68
2022/09/26 07:28:33;;;;;;;3.03;1.70;;;;;;;18.85;49.83;93188.69;5010190;28;20079;-68
2022/09/26 07:31:00;;;;;;;2.95;1.75;;;;;;;17.64;51.78;93194.25;5009524;28;20092;-69
2022/09/26 07:33:27;;;;;;;2.80;1.60;;;;;;;19.41;47.59;93196.16;5010325;28;20046;-69
2022/09/26 07:35:54;;;;;;;3.80;1.80;;;;;;;19.32;48.54;93194.31;5008844;28;20046;-69
2022/09/26 07:38:21;;;;;;;2.90;1.80;;;;;;;19.54;46.91;93185.41;5010575;28;20053;-69
2022/09/26 07:40:53;;;;;;;3.42;1.98;;;;;;;21.87;43.13;93200.88;5009433;28;20073;-69
2022/09/26 07:43:20;;;;;;;3.13;1.60;;;;;;;23.88;38.24;93188.06;5010635;28;20072;-69
2022/09/26 07:51:38;;;;;;;2.50;1.40;;;;;;;22.07;38.86;93193.47;5009982;28;20104;-70
2022/09/26 07:54:05;;;;;;;2.30;1.20;;;;;;;22.16;39.46;93184.09;5009958;28;20056;-70
2022/09/26 07:56:33;;;;;;;1.98;1.00;;;;;;;23.35;34.58;93192.97;5009848;28;20045;-70
2022/09/26 07:59:04;;;;;;;2.23;1.03;;;;;;;25.05;32.85;93176.28;5008610;28;20054;-70
2022/09/26 08:01:30;;;;;;;2.25;1.02;;;;;;;26.21;31.02;93184.94;5009789;28;20052;-70
2022/09/26 08:03:57;;;;;;;2.60;0.95;;;;;;;25.35;31.80;93175.44;5009737;28;20050;-70
2022/09/26 08:06:24;;;;;;;2.00;1.00;;;;;;;24.47;33.05;93171.81;5009826;28;20084;-69
2022/09/26 08:08:52;;;;;;;2.15;0.98;;;;;;;26.93;30.75;93168.09;5010080;28;20052;-70
2022/09/26 08:11:19;;;;;;;2.10;0.70;;;;;;;27.91;29.01;93171.22;5009974;28;20395;-70
2022/09/26 08:13:47;;;;;;;2.40;0.80;;;;;;;28.63;27.69;93160.25;5008958;28;20398;-70
2022/09/26 08:16:21;;;;;;;4.00;1.25;;;;;;;25.94;29.63;93155.97;5008070;28;20053;-70
2022/09/26 08:18:50;;;;;;;2.97;1.40;;;;;;;27.38;28.29;93164.41;5009158;28;20868;-70
2022/09/26 08:21:17;;;;;;;2.20;1.10;;;;;;;27.92;27.96;93167.84;5009912;28;20042;-70
2022/09/26 08:23:45;;;;;;;2.20;1.00;;;;;;;28.10;26.84;93166.16;5009344;28;20044;-70
2022/09/26 08:26:12;;;;;;;2.83;1.50;;;;;;;28.18;26.90;93161.34;5009976;28;20049;-70
2022/09/26 08:28:39;;;;;;;3.67;1.88;;;;;;;26.77;27.99;93172.00;5009162;28;20053;-70
2022/09/26 08:31:07;;;;;;;3.60;1.70;;;;;;;27.03;28.59;93169.19;5007985;28;20060;-70
2022/09/26 08:33:36;;;;;;;3.08;1.73;;;;;;;25.42;30.12;93180.47;5009028;28;20061;-70
2022/09/26 08:36:08;;;;;;;3.53;1.90;;;;;;;23.71;32.25;93174.91;5009383;28;20453;-69
2022/09/26 08:38:36;;;;;;;3.50;1.88;;;;;;;27.58;27.37;93167.84;5009230;28;20050;-70
2022/09/26 08:41:23;;;;;;;3.67;1.85;;;;;;;25.71;29.87;93170.34;5009213;28;20042;-70
2022/09/26 08:44:04;;;;;;;5.72;1.50;;;;;;;27.75;27.93;93175.91;5008444;28;21143;-70
2022/09/26 08:46:55;;;;;;;3.03;1.70;;;;;;;22.39;35.22;93174.44;5009300;28;20046;-70
2022/09/26 08:49:35;;;;;;;3.50;2.00;;;;;;;24.54;32.30;93176.84;5009163;28;20042;-69
2022/09/26 08:52:11;;;;;;;4.00;2.03;;;;;;;24.76;32.22;93173.03;5009545;28;20050;-70
2022/09/26 08:54:42;;;;;;;3.75;1.92;;;;;;;23.30;33.63;93170.09;5009310;28;20057;-70
2022/09/26 08:57:25;;;;;;;5.15;2.00;;;;;;;23.61;33.93;93168.13;5007970;28;20057;-70
2022/09/26 08:59:53;;;;;;;3.40;1.60;;;;;;;25.64;29.93;93170.97;5008863;28;21721;-70
2022/09/26 09:02:43;;;;;;;2.97;1.73;;;;;;;22.38;33.93;93172.91;5009629;28;20454;-69
2022/09/26 09:05:22;;;;;;;3.08;1.73;;;;;;;22.06;35.14;93169.63;5008282;28;20780;-69
2022/09/26 09:07:52;;;;;;;3.80;1.70;;;;;;;23.46;33.29;93164.91;5008568;28;20635;-69
2022/09/26 09:10:44;;;;;;;3.00;1.60;;;;;;;25.55;30.22;93166.47;4993275;28;20050;-69
2022/09/26 09:13:32;;;;;;;3.22;1.40;;;;;;;25.25;30.21;93155.41;5007843;28;21562;-69
2022/09/26 09:16:12;;;;;;;3.07;1.40;;;;;;;22.50;34.12;93159.69;5007026;28;20876;-69
2022/09/26 09:19:07;;;;;;;4.18;1.52;;;;;;;19.73;38.97;93167.13;5009413;28;20201;-69
2022/09/26 09:21:40;;;;;;;3.15;1.80;;;;;;;19.60;39.56;93163.97;4997270;28;20626;-68
2022/09/26 09:24:35;;;;;;;3.45;1.50;;;;;;;19.32;40.05;93164.44;5008553;28;20053;-68
2022/09/26 09:27:31;;;;;;;4.35;1.92;;;;;;;20.88;38.11;93158.97;5007821;28;20841;-68
2022/09/26 09:30:50;;;;;;;4.80;1.60;;;;;;;24.68;31.41;93150.41;5007622;28;22413;-69
2022/09/26 09:33:24;;;;;;;3.05;1.30;;;;;;;24.27;31.46;93150.56;5008077;28;20876;-69
2022/09/26 09:35:56;;;;;;;3.55;1.60;;;;;;;23.77;32.73;93141.28;5008061;28;21528;-69
2022/09/26 09:38:29;;;;;;;3.28;1.30;;;;;;;22.78;33.13;93139.22;5008909;28;20046;-68
2022/09/26 09:40:58;;;;;;;2.80;1.40;;;;;;;22.80;33.67;93133.88;5009057;28;20389;-69
2022/09/26 09:43:42;;;;;;;2.47;1.33;;;;;;;22.71;33.11;93130.09;5008596;28;20130;-68
2022/09/26 09:46:27;;;;;;;2.55;1.10;;;;;;;21.66;35.24;93129.75;5008687;28;20115;-69
2022/09/26 09:49:19;;;;;;;2.63;1.35;;;;;;;19.65;37.76;93117.94;5008182;28;20604;-68
2022/09/26 09:52:28;;;;;;;2.35;1.40;;;;;;;22.01;35.33;93120.09;5008950;28;20042;-68
2022/09/26 09:55:36;;;;;;;2.80;1.30;;;;;;;24.56;30.25;93114.63;5011154;28;21824;-69
2022/09/26 09:58:16;;;;;;;2.70;1.00;;;;;;;23.80;31.16;93111.47;4981769;28;20198;-69
2022/09/26 10:00:53;;;;;;;2.55;1.30;;;;;;;21.44;34.96;93110.97;5011771;28;20045;-69
2022/09/26 10:03:52;;;;;;;3.05;1.50;;;;;;;21.98;35.82;93105.09;5011931;28;20037;-69
2022/09/26 10:06:18;;;;;;;2.75;1.30;;;;;;;22.61;34.19;93100.16;5011119;28;20054;-69
2022/09/26 10:09:28;;;;;;;2.70;1.20;;;;;;;23.79;32.83;93087.56;5011267;28;20054;-68
2022/09/26 10:12:19;;;;;;;2.73;1.23;;;;;;;21.36;35.39;93096.69;5011210;28;21708;-68
2022/09/26 10:14:50;;;;;;;2.90;1.10;;;;;;;21.87;34.15;93091.16;5008949;28;20048;-68
2022/09/26 10:17:19;;;;;;;2.95;1.20;;;;;;;19.30;36.11;93093.88;5012527;28;20050;-68
2022/09/26 10:19:46;;;;;;;4.88;1.15;;;;;;;19.28;37.91;93091.59;5012047;28;20042;-68
2022/09/26 10:22:16;;;;;;;2.75;1.10;;;;;;;21.26;35.39;93089.84;5011845;28;20046;-69
2022/09/26 10:24:46;;;;;;;3.37;1.10;;;;;;;23.25;32.23;93084.09;5011341;28;20042;-69
2022/09/26 10:27:17;;;;;;;2.20;1.00;;;;;;;24.00;30.69;93076.66;5011736;28;20045;-69
2022/09/26 10:29:44;;;;;;;2.50;1.10;;;;;;;23.11;30.66;93077.56;5011589;28;20054;-69
2022/09/26 10:32:11;;;;;;;2.70;1.10;;;;;;;21.45;32.76;93078.97;5011639;28;20107;-69
2022/09/26 10:34:39;;;;;;;2.75;1.00;;;;;;;18.76;39.46;93072.09;5011053;28;20450;-68
2022/09/26 10:37:23;;;;;;;2.80;1.40;;;;;;;20.17;37.99;93069.69;5011486;28;20046;-69
2022/09/26 10:42:42;;;;;;;3.13;1.60;;;;;;;21.68;35.76;93074.91;4999093;28;20399;-69
2022/09/26 10:45:14;;;;;;;2.83;1.20;;;;;;;23.88;31.88;93068.34;5011070;28;20392;-69
2022/09/26 10:47:45;;;;;;;3.67;1.20;;;;;;;24.18;29.81;93061.19;5011086;28;20111;-69
2022/09/26 10:50:17;;;;;;;2.57;1.30;;;;;;;20.37;35.55;93061.19;5011173;28;20056;-69
2022/09/26 10:52:55;;;;;;;2.58;1.23;;;;;;;19.68;37.43;93064.03;5011108;28;20073;-69
2022/09/26 10:55:31;;;;;;;2.55;1.20;;;;;;;18.23;37.38;93062.13;5010934;28;20065;-66
2022/09/26 10:58:04;;;;;;;2.83;1.20;;;;;;;18.03;39.98;93065.66;5011362;28;20034;-68
2022/09/26 11:00:41;;;;;;;2.72;1.30;;;;;;;17.13;42.19;93059.53;5010835;28;20129;-68
2022/09/26 11:03:20;;;;;;;3.17;1.30;;;;;;;17.06;42.75;93052.34;5010832;28;20052;-69
2022/09/26 11:05:56;;;;;;;2.97;1.60;;;;;;;16.70;44.08;93051.47;5008896;28;20745;-68
2022/09/26 11:08:29;;;;;;;2.75;1.40;;;;;;;17.44;46.09;93053.44;5010412;28;20056;-67
2022/09/26 11:11:02;;;;;;;3.25;1.50;;;;;;;17.71;44.14;93046.78;5011050;28;20037;-69
2022/09/26 11:13:38;;;;;;;3.88;1.50;;;;;;;17.39;44.80;93045.81;5010344;28;20045;-69
2022/09/26 11:16:12;;;;;;;3.50;1.63;;;;;;;17.90;44.07;93044.56;5008724;28;20062;-69
2022/09/26 11:18:45;;;;;;;3.80;1.77;;;;;;;18.84;44.96;93030.75;4997887;28;20050;-69
2022/09/26 11:21:40;;;;;;;4.50;2.10;;;;;;;18.56;41.45;93031.19;5010996;28;20085;-68
2022/09/26 11:24:41;;;;;;;3.67;1.73;;;;;;;18.17;42.60;93034.31;5008721;28;20054;-69
2022/09/26 11:27:21;;;;;;;4.10;2.05;;;;;;;18.30;41.45;93025.59;4970862;28;20138;-68
2022/09/26 11:30:11;;;;;;;4.80;1.93;;;;;;;18.25;42.98;93015.97;5006203;28;21775;-69
2022/09/26 11:32:41;;;;;;;3.10;1.80;;;;;;;17.33;44.35;93015.22;5010394;28;20297;-69
2022/09/26 11:35:32;;;;;;;3.80;2.00;;;;;;;16.96;43.43;93017.66;5008941;28;20103;-69
2022/09/26 11:38:25;;;;;;;3.55;1.80;;;;;;;17.16;43.04;93012.22;5003770;28;20488;-68
2022/09/26 11:41:38;;;;;;;3.20;1.70;;;;;;;17.75;42.28;93007.75;5009795;28;20671;-68
2022/09/26 11:44:19;;;;;;;2.77;1.47;;;;;;;17.12;39.89;93006.09;5009078;28;21178;-69
2022/09/26 11:47:14;;;;;;;2.40;1.20;;;;;;;17.44;39.37;93000.75;5010026;28;20038;-68
2022/09/26 11:50:06;;;;;;;2.63;1.42;;;;;;;17.89;38.97;92993.06;5009780;28;20045;-68
2022/09/26 11:53:03;;;;;;;2.58;1.40;;;;;;;18.47;39.63;92984.91;5004062;28;20039;-68
2022/09/26 11:55:50;;;;;;;3.70;1.85;;;;;;;17.61;41.58;92980.81;5003866;28;20072;-68
2022/09/26 11:58:43;;;;;;;2.60;1.27;;;;;;;17.72;40.70;92976.16;5010124;28;20131;-68
2022/09/26 12:01:29;;;;;;;4.00;1.40;;;;;;;16.62;41.66;92978.28;5009240;28;20375;-68
2022/09/26 12:04:01;;;;;;;3.95;1.33;;;;;;;17.10;41.62;92991.16;5009378;28;20045;-68
2022/09/26 12:06:40;;;;;;;3.45;1.80;;;;;;;16.83;43.44;92981.19;5009238;28;20064;-68
2022/09/26 12:09:35;;;;;;;3.83;2.30;;;;;;;15.94;45.92;92987.38;5009792;28;20130;-68
2022/09/26 12:12:19;;;;;;;3.60;2.00;;;;;;;15.49;47.46;92978.88;5008827;28;20125;-68
2022/09/26 12:15:13;;;;;;;4.53;2.25;;;;;;;15.45;47.77;92977.50;5007503;28;20444;-68
2022/09/26 12:17:58;;;;;;;5.13;2.55;;;;;;;15.28;48.80;92972.38;5002389;28;20038;-68
2022/09/26 12:21:07;;;;;;;3.88;2.00;;;;;;;15.48;48.29;92969.03;5007317;28;20063;-68
2022/09/26 12:23:34;;;;;;;5.18;2.88;;;;;;;15.42;48.77;92978.47;4967618;28;20055;-68
2022/09/26 12:26:57;;;;;;;3.97;1.87;;;;;;;15.27;49.28;92976.41;4968236;28;20042;-68